createdAt,value
2023-02-13T00:01:23.153Z,12.13
2023-02-13T00:03:52.218Z,11.67
2023-02-13T00:06:24.116Z,13.13
2023-02-13T00:08:55.223Z,12.40
2023-02-13T00:11:26.954Z,13.00
2023-02-13T00:13:55.197Z,13.33
2023-02-13T00:16:27.120Z,11.73
2023-02-13T00:19:07.866Z,11.27
2023-02-13T00:21:42.391Z,11.50
2023-02-13T00:24:20.115Z,11.97
2023-02-13T00:27:00.973Z,11.67
2023-02-13T00:29:41.008Z,11.80
2023-02-13T00:32:13.094Z,11.33
2023-02-13T00:34:45.510Z,10.63
2023-02-13T00:37:15.480Z,11.20
2023-02-13T00:39:47.125Z,11.33
2023-02-13T00:42:31.945Z,10.33
2023-02-13T00:45:00.156Z,11.67
2023-02-13T00:47:33.047Z,11.67
2023-02-13T00:50:10.060Z,11.10
2023-02-13T00:52:39.384Z,13.77
2023-02-13T00:55:09.402Z,14.40
2023-02-13T00:57:40.524Z,17.00
2023-02-13T01:00:11.876Z,17.03
2023-02-13T01:02:50.640Z,17.53
2023-02-13T01:05:20.686Z,15.80
2023-02-13T01:07:52.550Z,17.43
2023-02-13T01:10:27.818Z,16.47
2023-02-13T01:13:00.977Z,17.13
2023-02-13T01:15:38.665Z,16.77
2023-02-13T01:18:16.522Z,16.07
2023-02-13T01:20:48.059Z,16.40
2023-02-13T01:23:18.300Z,16.83
2023-02-13T01:25:48.117Z,16.67
2023-02-13T01:28:22.365Z,17.80
2023-02-13T01:30:58.197Z,17.10
2023-02-13T01:33:43.277Z,18.27
2023-02-13T01:36:22.757Z,17.10
2023-02-13T01:38:55.417Z,20.47
2023-02-13T01:41:37.247Z,20.20
2023-02-13T01:44:46.223Z,20.90
2023-02-13T01:47:29.873Z,19.77
2023-02-13T01:50:07.369Z,21.50
2023-02-13T01:52:37.705Z,29.33
2023-02-13T01:55:15.261Z,34.87
2023-02-13T01:57:49.403Z,25.27
2023-02-13T02:00:31.144Z,27.40
2023-02-13T02:03:07.612Z,19.70
2023-02-13T02:05:40.449Z,17.57
2023-02-13T02:08:17.236Z,17.97
2023-02-13T02:10:46.873Z,17.13
2023-02-13T02:13:20.645Z,18.77
2023-02-13T02:16:02.665Z,17.03
2023-02-13T02:18:31.338Z,18.37
2023-02-13T02:21:41.340Z,16.87
2023-02-13T02:24:46.555Z,15.10
2023-02-13T02:27:22.747Z,16.80
2023-02-13T02:30:31.728Z,16.17
2023-02-13T02:33:12.665Z,17.40
2023-02-13T02:35:51.710Z,16.33
2023-02-13T02:38:31.724Z,17.00
2023-02-13T02:41:11.171Z,18.47
2023-02-13T02:43:53.617Z,18.37
2023-02-13T02:46:31.267Z,16.83
2023-02-13T02:49:24.080Z,16.87
2023-02-13T02:52:03.693Z,16.67
2023-02-13T02:54:54.672Z,17.27
2023-02-13T02:57:50.717Z,21.43
2023-02-13T03:00:45.480Z,19.90
2023-02-13T03:03:38.732Z,18.47
2023-02-13T03:06:16.094Z,18.60
2023-02-13T03:09:09.416Z,18.80
2023-02-13T03:11:57.723Z,17.33
2023-02-13T03:14:34.187Z,18.00
2023-02-13T03:17:21.945Z,17.33
2023-02-13T03:20:40.318Z,17.57
2023-02-13T03:23:29.196Z,20.03
2023-02-13T03:26:18.510Z,18.17
2023-02-13T03:29:10.752Z,18.03
2023-02-13T03:31:46.829Z,16.90
2023-02-13T03:34:19.051Z,16.67
2023-02-13T03:37:09.364Z,17.90
2023-02-13T03:39:53.356Z,16.20
2023-02-13T03:42:29.168Z,18.47
2023-02-13T03:45:21.989Z,16.03
2023-02-13T03:47:54.814Z,16.13
2023-02-13T03:50:25.353Z,16.33
2023-02-13T03:52:58.350Z,14.50
2023-02-13T03:55:52.656Z,13.50
2023-02-13T03:58:42.791Z,15.70
2023-02-13T04:01:16.324Z,14.50
2023-02-13T04:03:52.607Z,13.90
2023-02-13T04:06:35.568Z,14.10
2023-02-13T04:09:04.916Z,13.97
2023-02-13T04:11:41.412Z,14.87
2023-02-13T04:14:26.984Z,14.70
2023-02-13T04:17:00.818Z,14.80
2023-02-13T04:19:29.740Z,14.30
2023-02-13T04:22:01.292Z,14.80
2023-02-13T04:24:32.085Z,14.20
2023-02-13T04:27:04.045Z,14.40
2023-02-13T04:29:33.598Z,15.13
2023-02-13T04:32:08.283Z,14.83
2023-02-13T04:34:36.705Z,14.50
2023-02-13T04:37:14.042Z,13.90
2023-02-13T04:39:45.009Z,14.20
2023-02-13T04:42:31.154Z,13.53
2023-02-13T04:45:01.678Z,14.37
2023-02-13T04:47:32.115Z,13.90
2023-02-13T04:50:02.838Z,13.10
2023-02-13T04:52:34.519Z,14.20
2023-02-13T04:55:06.547Z,13.70
2023-02-13T04:57:43.373Z,14.03
2023-02-13T05:00:20.372Z,14.33
2023-02-13T05:02:48.455Z,13.73
2023-02-13T05:05:18.885Z,13.47
2023-02-13T05:07:48.352Z,12.63
2023-02-13T05:10:17.891Z,14.10
2023-02-13T05:12:51.959Z,13.27
2023-02-13T05:15:20.618Z,13.57
2023-02-13T05:17:50.639Z,13.30
2023-02-13T05:20:29.509Z,13.10
2023-02-13T05:23:18.126Z,13.03
2023-02-13T05:25:52.011Z,12.03
2023-02-13T05:28:53.428Z,12.33
2023-02-13T05:31:24.018Z,13.10
2023-02-13T05:33:52.999Z,12.07
2023-02-13T05:36:22.408Z,11.83
2023-02-13T05:38:53.259Z,11.50
2023-02-13T05:41:24.995Z,12.43
2023-02-13T05:44:08.691Z,12.00
2023-02-13T05:46:46.596Z,11.30
2023-02-13T05:49:19.631Z,12.03
2023-02-13T05:51:56.791Z,11.60
2023-02-13T05:54:26.242Z,12.33
2023-02-13T05:56:54.558Z,12.57
2023-02-13T05:59:40.001Z,11.13
2023-02-13T06:02:08.603Z,12.67
2023-02-13T06:04:49.354Z,12.63
2023-02-13T06:07:23.453Z,11.40
2023-02-13T06:09:55.392Z,12.07
2023-02-13T06:12:23.556Z,11.73
2023-02-13T06:15:13.848Z,11.33
2023-02-13T06:17:42.944Z,8.97
2023-02-13T06:20:14.180Z,8.40
2023-02-13T06:22:42.655Z,7.67
2023-02-13T06:25:19.994Z,7.27
2023-02-13T06:27:48.801Z,8.63
2023-02-13T06:30:19.597Z,7.17
2023-02-13T06:32:50.619Z,6.20
2023-02-13T06:35:21.919Z,6.90
2023-02-13T06:37:51.006Z,7.40
2023-02-13T06:40:22.151Z,7.00
2023-02-13T06:42:54.073Z,6.93
2023-02-13T06:45:30.139Z,6.40
2023-02-13T06:48:04.815Z,7.80
2023-02-13T06:50:36.171Z,6.57
2023-02-13T06:53:05.654Z,7.10
2023-02-13T06:55:34.629Z,7.30
2023-02-13T06:58:04.249Z,7.00
2023-02-13T07:00:37.721Z,7.40
2023-02-13T07:03:07.842Z,7.10
2023-02-13T07:05:39.248Z,7.40
2023-02-13T07:08:07.658Z,7.53
2023-02-13T07:10:39.351Z,7.73
2023-02-13T07:13:13.591Z,7.90
2023-02-13T07:16:01.126Z,6.80
2023-02-13T07:18:32.257Z,7.90
2023-02-13T07:21:03.991Z,8.20
2023-02-13T07:23:32.747Z,8.17
2023-02-13T07:26:13.723Z,8.53
2023-02-13T07:28:42.997Z,7.60
2023-02-13T07:31:19.798Z,7.30
2023-02-13T07:33:52.918Z,7.53
2023-02-13T07:36:29.346Z,7.70
2023-02-13T07:38:58.713Z,8.73
2023-02-13T07:41:30.857Z,8.50
2023-02-13T07:44:01.844Z,7.27
2023-02-13T07:46:33.894Z,7.87
2023-02-13T07:49:05.375Z,6.90
2023-02-13T07:51:34.134Z,8.33
2023-02-13T07:54:03.022Z,7.40
2023-02-13T07:56:34.828Z,7.23
2023-02-13T07:59:07.855Z,7.90
2023-02-13T08:01:46.434Z,7.23
2023-02-13T08:04:17.076Z,9.60
2023-02-13T08:06:57.670Z,8.77
2023-02-13T08:09:45.544Z,8.43
2023-02-13T08:12:22.536Z,8.23
2023-02-13T08:14:53.093Z,7.30
2023-02-13T08:17:29.842Z,7.57
2023-02-13T08:20:01.608Z,6.67
2023-02-13T08:22:29.742Z,6.77
2023-02-13T08:24:58.087Z,6.70
2023-02-13T08:27:30.316Z,7.57
2023-02-13T08:30:00.482Z,7.97
2023-02-13T08:32:41.958Z,8.27
2023-02-13T08:35:32.252Z,7.40
2023-02-13T08:38:06.484Z,8.30
2023-02-13T08:40:36.161Z,7.53
2023-02-13T08:43:16.838Z,7.60
2023-02-13T08:45:46.376Z,7.80
2023-02-13T08:48:22.179Z,8.63
2023-02-13T08:50:50.298Z,7.93
2023-02-13T08:53:32.702Z,7.90
2023-02-13T08:56:02.426Z,7.77
2023-02-13T08:58:38.911Z,9.10
2023-02-13T09:01:12.299Z,7.80
2023-02-13T09:03:44.130Z,8.07
2023-02-13T09:06:14.386Z,8.60
2023-02-13T09:08:48.697Z,8.57
2023-02-13T09:11:24.264Z,7.27
2023-02-13T09:13:54.815Z,8.83
2023-02-13T09:16:24.233Z,8.50
2023-02-13T09:19:02.076Z,9.27
2023-02-13T09:21:34.074Z,8.70
2023-02-13T09:24:06.767Z,7.50
2023-02-13T09:26:37.358Z,7.83
2023-02-13T09:29:05.884Z,8.33
2023-02-13T09:31:37.678Z,7.53
2023-02-13T09:34:11.250Z,7.33
2023-02-13T09:36:40.837Z,6.60
2023-02-13T09:39:10.818Z,5.93
2023-02-13T09:41:42.344Z,5.37
2023-02-13T09:44:34.182Z,5.93
2023-02-13T09:47:07.238Z,6.27
2023-02-13T09:49:49.112Z,6.97
2023-02-13T09:52:21.496Z,7.40
2023-02-13T09:54:54.584Z,7.03
2023-02-13T09:57:32.371Z,6.57
2023-02-13T10:00:15.575Z,5.80
2023-02-13T10:03:21.321Z,5.53
2023-02-13T10:06:10.642Z,6.67
2023-02-13T10:09:05.567Z,6.47
2023-02-13T10:11:58.087Z,6.73
2023-02-13T10:14:42.356Z,7.63
2023-02-13T10:17:18.351Z,7.10
2023-02-13T10:19:49.702Z,7.23
2023-02-13T10:22:22.113Z,6.73
2023-02-13T10:24:56.791Z,5.50
2023-02-13T10:27:29.486Z,5.73
2023-02-13T10:30:06.997Z,6.10
2023-02-13T10:32:48.894Z,3.93
2023-02-13T10:35:30.414Z,4.50
2023-02-13T10:38:09.026Z,5.30
2023-02-13T10:40:43.717Z,6.53
2023-02-13T10:43:22.460Z,5.60
2023-02-13T10:46:25.818Z,5.67
2023-02-13T10:49:19.822Z,6.47
2023-02-13T10:51:56.957Z,5.90
2023-02-13T10:54:49.206Z,6.70
2023-02-13T10:57:26.870Z,6.50
2023-02-13T11:00:09.751Z,8.23
2023-02-13T11:02:44.990Z,8.73
2023-02-13T11:05:24.482Z,8.63
2023-02-13T11:07:55.403Z,9.20
2023-02-13T11:10:30.306Z,8.53
2023-02-13T11:13:09.279Z,7.40
2023-02-13T11:15:39.665Z,9.50
2023-02-13T11:18:19.533Z,8.23
2023-02-13T11:20:49.433Z,9.37
2023-02-13T11:23:36.624Z,8.10
2023-02-13T11:26:27.602Z,8.40
2023-02-13T11:28:58.074Z,8.00
2023-02-13T11:31:31.868Z,8.77
2023-02-13T11:34:25.186Z,8.03
2023-02-13T11:36:55.692Z,8.67
2023-02-13T11:39:24.681Z,7.50
2023-02-13T11:42:17.423Z,8.67
2023-02-13T11:44:50.923Z,7.53
2023-02-13T11:47:41.305Z,7.00
2023-02-13T11:50:26.695Z,6.33
2023-02-13T11:53:01.642Z,6.57
2023-02-13T11:55:33.574Z,5.87
2023-02-13T11:58:32.090Z,5.60
2023-02-13T12:01:37.891Z,6.57
2023-02-13T12:04:18.924Z,7.30
2023-02-13T12:07:04.862Z,7.30
2023-02-13T12:09:35.803Z,7.80
2023-02-13T12:12:12.647Z,7.93
2023-02-13T12:14:45.440Z,6.20
2023-02-13T12:17:31.830Z,6.57
2023-02-13T12:20:03.284Z,5.77
2023-02-13T12:22:46.183Z,5.70
2023-02-13T12:25:28.072Z,6.93
2023-02-13T12:28:12.198Z,7.20
2023-02-13T12:34:50.816Z,6.30
2023-02-13T12:37:32.819Z,5.70
2023-02-13T12:40:16.351Z,5.67
2023-02-13T12:42:50.874Z,6.60
2023-02-13T12:45:40.371Z,6.93
2023-02-13T12:48:34.952Z,6.50
2023-02-13T12:51:18.239Z,6.50
2023-02-13T12:57:44.776Z,5.43
2023-02-13T13:00:29.486Z,6.53
2023-02-13T13:03:37.049Z,5.47
2023-02-13T13:06:15.376Z,5.73
2023-02-13T13:09:19.992Z,6.10
2023-02-13T13:12:11.768Z,5.53
2023-02-13T13:14:46.720Z,6.30
2023-02-13T13:17:26.203Z,6.40
2023-02-13T13:20:05.906Z,7.60
2023-02-13T13:22:42.512Z,6.30
2023-02-13T13:25:26.590Z,5.63
2023-02-13T13:28:01.484Z,4.97
2023-02-13T13:30:35.770Z,5.70
2023-02-13T13:33:11.600Z,5.83
2023-02-13T13:35:47.686Z,6.20
2023-02-13T13:38:25.489Z,5.63
2023-02-13T13:41:01.360Z,5.90
2023-02-13T13:43:46.052Z,4.97
2023-02-13T13:46:34.445Z,5.10
2023-02-13T13:49:19.394Z,5.40
2023-02-13T13:51:51.967Z,11.27
2023-02-13T13:54:36.806Z,8.37
2023-02-13T13:57:14.113Z,7.47
2023-02-13T14:00:34.350Z,7.10
2023-02-13T14:03:25.807Z,7.93
2023-02-13T14:06:12.509Z,8.13
2023-02-13T14:09:37.837Z,6.50
2023-02-13T14:12:50.060Z,8.17
2023-02-13T14:15:53.433Z,7.37
2023-02-13T14:18:31.905Z,5.90
2023-02-13T14:21:02.571Z,5.13
2023-02-13T14:23:52.754Z,5.33
2023-02-13T14:26:41.894Z,5.90
2023-02-13T14:29:24.736Z,5.00
2023-02-13T14:32:06.826Z,5.53
2023-02-13T14:34:37.925Z,4.10
2023-02-13T14:37:36.846Z,4.13
2023-02-13T14:40:36.777Z,7.77
2023-02-13T14:43:39.674Z,7.10
2023-02-13T14:46:49.159Z,8.37
2023-02-13T14:49:24.515Z,7.50
2023-02-13T14:51:59.220Z,5.57
2023-02-13T14:54:32.919Z,4.40
2023-02-13T14:57:10.172Z,6.20
2023-02-13T14:59:54.990Z,5.97
2023-02-13T15:02:32.459Z,5.80
2023-02-13T15:05:04.861Z,6.77
2023-02-13T15:07:37.135Z,4.53
2023-02-13T15:10:31.850Z,6.90
2023-02-13T15:13:02.086Z,4.37
2023-02-13T15:15:52.997Z,4.77
2023-02-13T15:18:24.206Z,4.40
2023-02-13T15:20:55.701Z,5.73
2023-02-13T15:23:27.877Z,4.80
2023-02-13T15:26:10.584Z,4.40
2023-02-13T15:28:50.699Z,4.47
2023-02-13T15:31:26.504Z,5.80
2023-02-13T15:33:58.290Z,5.97
2023-02-13T15:36:44.909Z,5.40
2023-02-13T15:39:24.679Z,4.80
2023-02-13T15:41:58.650Z,4.83
2023-02-13T15:44:37.406Z,5.60
2023-02-13T15:47:30.210Z,6.80
2023-02-13T15:49:59.892Z,6.37
2023-02-13T15:52:45.247Z,6.33
2023-02-13T15:55:22.043Z,6.30
2023-02-13T15:57:53.383Z,5.37
2023-02-13T16:00:31.886Z,5.43
2023-02-13T16:03:08.189Z,5.80
2023-02-13T16:05:41.670Z,6.10
2023-02-13T16:08:32.982Z,5.87
2023-02-13T16:11:33.883Z,6.20
2023-02-13T16:14:22.475Z,5.47
2023-02-13T16:16:54.656Z,5.60
2023-02-13T16:19:56.915Z,7.53
2023-02-13T16:22:36.094Z,4.77
2023-02-13T16:25:20.942Z,4.70
2023-02-13T16:27:53.617Z,5.30
2023-02-13T16:30:36.903Z,5.33
2023-02-13T16:33:43.521Z,5.70
2023-02-13T16:36:30.072Z,7.63
2023-02-13T16:39:04.173Z,6.80
2023-02-13T16:41:36.909Z,6.70
2023-02-13T16:44:12.599Z,6.47
2023-02-13T16:46:46.209Z,5.30
2023-02-13T16:49:28.084Z,7.70
2023-02-13T16:52:27.076Z,7.27
2023-02-13T16:55:05.680Z,10.30
2023-02-13T16:57:36.491Z,16.00
2023-02-13T17:00:34.931Z,13.50
2023-02-13T17:03:15.740Z,13.17
2023-02-13T17:05:56.907Z,10.80
2023-02-13T17:08:28.463Z,7.40
2023-02-13T17:11:17.998Z,7.60
2023-02-13T17:16:40.935Z,6.10
2023-02-13T17:19:16.587Z,7.80
2023-02-13T17:21:56.977Z,7.07
2023-02-13T17:24:35.586Z,5.90
2023-02-13T17:27:16.156Z,6.60
2023-02-13T17:29:56.861Z,7.50
2023-02-13T17:32:30.482Z,6.77
2023-02-13T17:35:02.616Z,6.80
2023-02-13T17:37:34.718Z,7.63
2023-02-13T17:40:13.630Z,7.40
2023-02-13T17:42:55.301Z,6.63
2023-02-13T17:45:28.869Z,6.43
2023-02-13T17:47:59.633Z,8.90
2023-02-13T17:50:43.852Z,7.27
2023-02-13T17:53:27.812Z,7.10
2023-02-13T17:56:11.789Z,6.97
2023-02-13T17:58:51.077Z,7.67
2023-02-13T18:01:25.343Z,6.20
2023-02-13T18:04:00.903Z,7.00
2023-02-13T18:06:42.489Z,7.03
2023-02-13T18:09:20.519Z,7.63
2023-02-13T18:12:05.312Z,7.20
2023-02-13T18:14:37.689Z,8.10
2023-02-13T18:17:12.467Z,7.87
2023-02-13T18:19:43.682Z,8.70
2023-02-13T18:22:13.938Z,7.70
2023-02-13T18:24:55.903Z,8.80
2023-02-13T18:27:30.848Z,16.43
2023-02-13T18:30:09.890Z,10.23
2023-02-13T18:32:50.204Z,8.80
2023-02-13T18:35:30.653Z,7.10
2023-02-13T18:38:06.765Z,8.37
2023-02-13T18:40:43.939Z,7.57
2023-02-13T18:43:33.417Z,8.10
2023-02-13T18:46:11.429Z,12.00
2023-02-13T18:48:47.207Z,8.67
2023-02-13T18:51:21.998Z,8.20
2023-02-13T18:54:13.601Z,16.53
2023-02-13T18:57:06.424Z,14.90
2023-02-13T18:59:52.733Z,10.67
2023-02-13T19:02:26.420Z,8.77
2023-02-13T19:04:59.629Z,7.83
2023-02-13T19:07:41.637Z,6.90
2023-02-13T19:10:21.603Z,6.30
2023-02-13T19:12:52.491Z,7.07
2023-02-13T19:15:48.374Z,7.83
2023-02-13T19:18:25.012Z,6.10
2023-02-13T19:21:05.690Z,7.53
2023-02-13T19:26:29.319Z,6.40
2023-02-13T19:29:19.496Z,6.07
2023-02-13T19:31:59.469Z,7.10
2023-02-13T19:34:40.043Z,6.80
2023-02-13T19:37:13.103Z,5.97
2023-02-13T19:39:56.999Z,6.50
2023-02-13T19:42:40.182Z,6.80
2023-02-13T19:45:19.219Z,6.83
2023-02-13T19:48:11.796Z,6.70
2023-02-13T19:50:54.314Z,7.10
2023-02-13T19:53:28.625Z,6.70
2023-02-13T19:56:07.823Z,6.93
2023-02-13T19:58:46.316Z,7.53
2023-02-13T20:01:29.407Z,8.30
2023-02-13T20:04:27.237Z,6.83
2023-02-13T20:06:59.443Z,6.20
2023-02-13T20:09:39.932Z,5.80
2023-02-13T20:12:31.476Z,7.00
2023-02-13T20:15:17.554Z,6.97
2023-02-13T20:17:55.404Z,6.63
2023-02-13T20:20:33.777Z,6.00
2023-02-13T20:23:13.087Z,7.60
2023-02-13T20:25:42.892Z,6.63
2023-02-13T20:28:23.392Z,6.47
2023-02-13T20:31:04.886Z,7.17
2023-02-13T20:33:42.336Z,6.20
2023-02-13T20:36:36.062Z,6.60
2023-02-13T20:39:09.974Z,6.57
2023-02-13T20:41:50.596Z,6.90
2023-02-13T20:44:24.186Z,7.30
2023-02-13T20:47:08.307Z,6.37
2023-02-13T20:49:46.807Z,6.40
2023-02-13T20:52:24.273Z,6.47
2023-02-13T20:55:06.992Z,6.57
2023-02-13T20:57:42.014Z,6.80
2023-02-13T21:00:20.583Z,7.07
2023-02-13T21:03:01.055Z,6.80
2023-02-13T21:05:45.986Z,6.13
2023-02-13T21:08:42.055Z,5.53
2023-02-13T21:11:31.028Z,6.63
2023-02-13T21:14:05.556Z,6.23
2023-02-13T21:16:39.791Z,6.60
2023-02-13T21:19:22.891Z,7.30
2023-02-13T21:21:52.909Z,7.37
2023-02-13T21:24:58.502Z,7.30
2023-02-13T21:27:42.023Z,7.10
2023-02-13T21:30:22.536Z,7.30
2023-02-13T21:33:01.648Z,7.33
2023-02-13T21:35:37.317Z,8.10
2023-02-13T21:38:15.836Z,7.50
2023-02-13T21:40:49.313Z,8.07
2023-02-13T21:43:32.027Z,7.97
2023-02-13T21:46:12.081Z,7.17
2023-02-13T21:48:52.573Z,7.90
2023-02-13T21:51:30.537Z,8.13
2023-02-13T21:54:01.246Z,7.27
2023-02-13T21:56:42.287Z,8.20
2023-02-13T21:59:18.056Z,7.47
2023-02-13T22:01:55.212Z,7.00
2023-02-13T22:04:26.104Z,7.50
2023-02-13T22:07:07.578Z,6.67
2023-02-13T22:09:39.622Z,7.03
2023-02-13T22:12:09.372Z,7.60
2023-02-13T22:14:40.103Z,6.50
2023-02-13T22:17:12.042Z,6.10
2023-02-13T22:19:43.870Z,7.13
2023-02-13T22:22:24.959Z,7.73
2023-02-13T22:24:55.745Z,6.03
2023-02-13T22:27:37.897Z,6.50
2023-02-13T22:30:09.179Z,6.30
2023-02-13T22:32:40.341Z,6.50
2023-02-13T22:35:18.311Z,7.10
2023-02-13T22:37:50.008Z,6.53
2023-02-13T22:40:20.366Z,6.07
2023-02-13T22:43:04.278Z,5.87
2023-02-13T22:45:48.397Z,5.93
2023-02-13T22:48:29.662Z,6.00
2023-02-13T22:51:05.479Z,6.20
2023-02-13T22:53:35.223Z,5.80
2023-02-13T22:56:06.555Z,6.53
2023-02-13T22:58:38.563Z,5.43
2023-02-13T23:01:14.154Z,6.33
2023-02-13T23:03:45.931Z,5.80
2023-02-13T23:06:16.046Z,5.33
2023-02-13T23:08:53.716Z,6.00
2023-02-13T23:11:45.571Z,5.87
2023-02-13T23:14:26.040Z,5.73
2023-02-13T23:17:13.174Z,5.50
2023-02-13T23:19:45.064Z,6.60
2023-02-13T23:22:23.837Z,5.57
2023-02-13T23:25:04.954Z,6.10
2023-02-13T23:27:44.752Z,6.27
2023-02-13T23:30:19.369Z,6.03
2023-02-13T23:32:50.293Z,5.73
2023-02-13T23:35:22.563Z,5.47
2023-02-13T23:37:54.739Z,6.00
2023-02-13T23:40:26.348Z,5.70
2023-02-13T23:42:56.529Z,5.63
2023-02-13T23:45:34.679Z,5.70
2023-02-13T23:48:11.485Z,5.83
2023-02-13T23:50:41.288Z,4.50
2023-02-13T23:53:18.538Z,5.60
2023-02-13T23:55:46.995Z,6.03
2023-02-13T23:58:17.236Z,5.40
